createdAt,value
2023-05-09T00:00:09.095Z,14.30
2023-05-09T00:01:09.088Z,14.26
2023-05-09T00:02:09.136Z,14.31
2023-05-09T00:03:09.140Z,14.22
2023-05-09T00:04:09.132Z,14.26
2023-05-09T00:05:09.046Z,14.26
2023-05-09T00:06:09.043Z,14.23
2023-05-09T00:07:09.024Z,14.22
2023-05-09T00:08:09.066Z,14.23
2023-05-09T00:09:09.014Z,14.23
2023-05-09T00:10:09.125Z,14.23
2023-05-09T00:11:08.987Z,14.13
2023-05-09T00:12:08.972Z,14.15
2023-05-09T00:13:09.016Z,14.16
2023-05-09T00:14:08.951Z,14.16
2023-05-09T00:15:08.956Z,14.15
2023-05-09T00:16:08.970Z,14.05
2023-05-09T00:17:08.916Z,14.09
2023-05-09T00:18:08.908Z,14.05
2023-05-09T00:19:08.923Z,14.09
2023-05-09T00:20:08.886Z,14.05
2023-05-09T00:21:08.878Z,13.97
2023-05-09T00:22:08.888Z,14.04
2023-05-09T00:23:08.859Z,14.04
2023-05-09T00:24:08.874Z,13.91
2023-05-09T00:25:08.829Z,13.97
2023-05-09T00:26:08.938Z,13.96
2023-05-09T00:27:08.826Z,14.03
2023-05-09T00:28:08.798Z,14.00
2023-05-09T00:29:08.817Z,13.83
2023-05-09T00:30:08.786Z,13.93
2023-05-09T00:31:08.767Z,13.88
2023-05-09T00:32:08.768Z,13.82
2023-05-09T00:33:08.761Z,13.93
2023-05-09T00:34:08.766Z,13.96
2023-05-09T00:35:08.722Z,13.91
2023-05-09T00:36:08.709Z,13.88
2023-05-09T00:37:08.700Z,13.93
2023-05-09T00:38:08.687Z,13.83
2023-05-09T00:39:08.672Z,13.86
2023-05-09T00:40:08.692Z,13.82
2023-05-09T00:41:08.651Z,13.80
2023-05-09T00:42:08.781Z,13.83
2023-05-09T00:43:08.630Z,13.79
2023-05-09T00:44:08.632Z,13.79
2023-05-09T00:45:08.625Z,13.72
2023-05-09T00:46:08.659Z,13.76
2023-05-09T00:47:08.590Z,13.76
2023-05-09T00:48:08.589Z,13.80
2023-05-09T00:49:08.594Z,13.76
2023-05-09T00:50:08.585Z,13.71
2023-05-09T00:51:08.539Z,13.75
2023-05-09T00:52:08.531Z,13.72
2023-05-09T00:53:08.529Z,13.67
2023-05-09T00:54:09.269Z,13.67
2023-05-09T00:55:08.520Z,13.71
2023-05-09T00:56:08.505Z,13.67
2023-05-09T00:57:08.478Z,13.65
2023-05-09T00:58:08.590Z,13.65
2023-05-09T00:59:08.484Z,13.64
2023-05-09T01:00:08.459Z,13.64
2023-05-09T01:01:08.474Z,13.64
2023-05-09T01:02:08.464Z,13.57
2023-05-09T01:03:08.579Z,13.57
2023-05-09T01:04:08.403Z,13.58
2023-05-09T01:05:08.386Z,13.57
2023-05-09T01:06:08.411Z,13.53
2023-05-09T01:07:08.394Z,13.53
2023-05-09T01:08:08.367Z,13.51
2023-05-09T01:09:08.348Z,13.47
2023-05-09T01:10:08.372Z,13.49
2023-05-09T01:11:08.360Z,13.43
2023-05-09T01:12:08.322Z,13.42
2023-05-09T01:13:08.330Z,13.49
2023-05-09T01:14:08.424Z,13.42
2023-05-09T01:15:08.286Z,13.45
2023-05-09T01:16:08.340Z,13.40
2023-05-09T01:17:08.285Z,13.36
2023-05-09T01:18:08.304Z,13.26
2023-05-09T01:19:08.242Z,13.38
2023-05-09T01:20:08.241Z,13.42
2023-05-09T01:21:08.243Z,13.36
2023-05-09T01:22:08.209Z,13.26
2023-05-09T01:23:08.200Z,13.26
2023-05-09T01:24:08.197Z,13.32
2023-05-09T01:25:08.173Z,13.27
2023-05-09T01:26:08.191Z,13.30
2023-05-09T01:27:08.152Z,13.23
2023-05-09T01:28:08.169Z,13.19
2023-05-09T01:29:08.137Z,13.29
2023-05-09T01:30:08.244Z,13.14
2023-05-09T01:31:08.217Z,13.20
2023-05-09T01:32:08.106Z,13.24
2023-05-09T01:33:08.143Z,13.14
2023-05-09T01:34:08.093Z,13.29
2023-05-09T01:35:08.061Z,13.13
2023-05-09T01:36:08.103Z,13.13
2023-05-09T01:37:08.055Z,13.24
2023-05-09T01:38:08.042Z,13.24
2023-05-09T01:39:08.047Z,13.11
2023-05-09T01:40:08.017Z,13.14
2023-05-09T01:41:08.002Z,13.14
2023-05-09T01:42:07.993Z,13.17
2023-05-09T01:43:07.992Z,13.01
2023-05-09T01:44:08.035Z,13.06
2023-05-09T01:45:07.968Z,13.02
2023-05-09T01:46:08.105Z,12.99
2023-05-09T01:47:07.940Z,13.05
2023-05-09T01:48:07.994Z,13.04
2023-05-09T01:49:07.945Z,13.05
2023-05-09T01:50:07.907Z,12.98
2023-05-09T01:51:07.888Z,13.01
2023-05-09T01:52:07.883Z,12.98
2023-05-09T01:53:07.872Z,12.98
2023-05-09T01:54:07.916Z,12.91
2023-05-09T01:55:07.849Z,12.90
2023-05-09T01:56:07.850Z,12.90
2023-05-09T01:57:07.832Z,12.79
2023-05-09T01:58:07.852Z,12.96
2023-05-09T01:59:07.826Z,12.93
2023-05-09T02:00:07.808Z,12.87
2023-05-09T02:01:07.836Z,12.86
2023-05-09T02:02:08.002Z,12.84
2023-05-09T02:03:07.795Z,12.87
2023-05-09T02:04:07.785Z,12.86
2023-05-09T02:05:07.740Z,12.86
2023-05-09T02:06:07.734Z,12.79
2023-05-09T02:07:07.714Z,12.81
2023-05-09T02:08:07.719Z,12.84
2023-05-09T02:09:07.720Z,12.83
2023-05-09T02:10:07.689Z,12.83
2023-05-09T02:11:07.688Z,12.73
2023-05-09T02:12:07.663Z,12.71
2023-05-09T02:13:07.698Z,12.66
2023-05-09T02:14:07.683Z,12.77
2023-05-09T02:15:07.661Z,12.72
2023-05-09T02:16:07.723Z,12.69
2023-05-09T02:17:07.611Z,12.66
2023-05-09T02:18:07.727Z,12.62
2023-05-09T02:19:07.584Z,12.68
2023-05-09T02:20:07.609Z,12.62
2023-05-09T02:21:07.603Z,12.62
2023-05-09T02:22:07.557Z,12.59
2023-05-09T02:23:07.546Z,12.55
2023-05-09T02:24:07.532Z,12.71
2023-05-09T02:25:07.547Z,12.63
2023-05-09T02:26:07.521Z,12.62
2023-05-09T02:27:07.512Z,12.62
2023-05-09T02:28:07.496Z,12.59
2023-05-09T02:29:07.485Z,12.58
2023-05-09T02:30:07.493Z,12.55
2023-05-09T02:31:07.460Z,12.58
2023-05-09T02:32:07.523Z,12.54
2023-05-09T02:33:07.484Z,12.53
2023-05-09T02:34:07.544Z,12.51
2023-05-09T02:35:07.439Z,12.55
2023-05-09T02:36:07.440Z,12.48
2023-05-09T02:37:07.395Z,12.48
2023-05-09T02:38:07.397Z,12.48
2023-05-09T02:39:07.376Z,12.51
2023-05-09T02:40:07.362Z,12.47
2023-05-09T02:41:07.376Z,12.38
2023-05-09T02:42:07.339Z,12.43
2023-05-09T02:43:07.326Z,12.40
2023-05-09T02:44:07.323Z,12.46
2023-05-09T02:45:07.299Z,12.40
2023-05-09T02:46:07.361Z,12.40
2023-05-09T02:47:07.281Z,12.33
2023-05-09T02:48:08.942Z,12.41
2023-05-09T02:49:07.262Z,12.36
2023-05-09T02:50:07.397Z,12.32
2023-05-09T02:51:07.259Z,12.35
2023-05-09T02:52:07.231Z,12.30
2023-05-09T02:53:07.237Z,12.41
2023-05-09T02:54:07.209Z,12.33
2023-05-09T02:55:07.202Z,12.28
2023-05-09T02:56:07.214Z,12.18
2023-05-09T02:57:07.172Z,12.23
2023-05-09T02:58:14.152Z,12.23
2023-05-09T02:59:08.161Z,12.18
2023-05-09T03:00:07.148Z,12.18
2023-05-09T03:01:07.147Z,12.18
2023-05-09T03:02:07.145Z,12.17
2023-05-09T03:03:07.181Z,12.18
2023-05-09T03:04:07.101Z,12.11
2023-05-09T03:05:07.090Z,12.13
2023-05-09T03:06:07.222Z,12.13
2023-05-09T03:07:07.066Z,12.23
2023-05-09T03:08:07.070Z,12.17
2023-05-09T03:09:07.049Z,12.10
2023-05-09T03:10:07.045Z,12.11
2023-05-09T03:11:07.049Z,12.15
2023-05-09T03:12:07.011Z,12.11
2023-05-09T03:13:07.005Z,12.07
2023-05-09T03:14:06.990Z,12.11
2023-05-09T03:15:06.983Z,11.97
2023-05-09T03:16:07.062Z,11.99
2023-05-09T03:17:06.959Z,12.05
2023-05-09T03:18:07.007Z,12.00
2023-05-09T03:19:06.937Z,11.99
2023-05-09T03:20:06.918Z,12.00
2023-05-09T03:21:06.941Z,12.03
2023-05-09T03:22:07.020Z,12.04
2023-05-09T03:23:06.900Z,11.95
2023-05-09T03:24:06.917Z,11.96
2023-05-09T03:25:06.869Z,11.97
2023-05-09T03:26:06.892Z,11.88
2023-05-09T03:27:06.883Z,11.89
2023-05-09T03:28:06.836Z,11.87
2023-05-09T03:29:06.835Z,11.82
2023-05-09T03:30:06.843Z,11.95
2023-05-09T03:31:06.856Z,11.96
2023-05-09T03:32:06.811Z,11.95
2023-05-09T03:33:06.827Z,11.95
2023-05-09T03:34:06.808Z,11.89
2023-05-09T03:35:06.768Z,11.89
2023-05-09T03:36:06.749Z,11.85
2023-05-09T03:37:06.779Z,11.93
2023-05-09T03:38:06.870Z,11.97
2023-05-09T03:39:06.719Z,11.85
2023-05-09T03:40:06.746Z,11.80
2023-05-09T03:41:06.692Z,11.87
2023-05-09T03:42:06.707Z,11.85
2023-05-09T03:43:06.683Z,11.80
2023-05-09T03:44:06.665Z,11.82
2023-05-09T03:45:06.682Z,11.82
2023-05-09T03:46:06.641Z,11.80
2023-05-09T03:47:06.695Z,11.80
2023-05-09T03:48:06.669Z,11.82
2023-05-09T03:49:06.612Z,11.73
2023-05-09T03:50:06.626Z,11.88
2023-05-09T03:51:06.587Z,11.76
2023-05-09T03:52:06.613Z,11.77
2023-05-09T03:53:06.571Z,11.77
2023-05-09T03:54:06.666Z,11.73
2023-05-09T03:55:06.547Z,11.79
2023-05-09T03:56:06.555Z,11.69
2023-05-09T03:57:06.530Z,11.79
2023-05-09T03:58:06.533Z,11.70
2023-05-09T03:59:06.501Z,11.79
2023-05-09T04:00:06.487Z,11.69
2023-05-09T04:01:06.512Z,11.77
2023-05-09T04:02:06.470Z,11.76
2023-05-09T04:03:06.586Z,11.71
2023-05-09T04:04:06.611Z,11.76
2023-05-09T04:05:06.437Z,11.71
2023-05-09T04:06:06.460Z,11.64
2023-05-09T04:07:06.418Z,11.61
2023-05-09T04:08:06.431Z,11.61
2023-05-09T04:09:06.395Z,11.66
2023-05-09T04:10:06.511Z,11.56
2023-05-09T04:11:06.422Z,11.69
2023-05-09T04:12:06.364Z,11.61
2023-05-09T04:13:06.472Z,11.62
2023-05-09T04:14:06.397Z,11.62
2023-05-09T04:15:06.474Z,11.59
2023-05-09T04:16:06.388Z,11.67
2023-05-09T04:17:06.450Z,11.64
2023-05-09T04:18:06.314Z,11.54
2023-05-09T04:19:06.341Z,11.52
2023-05-09T04:20:06.278Z,11.58
2023-05-09T04:21:06.292Z,11.67
2023-05-09T04:22:06.256Z,11.56
2023-05-09T04:23:06.255Z,11.61
2023-05-09T04:24:06.240Z,11.64
2023-05-09T04:25:06.247Z,11.62
2023-05-09T04:26:06.408Z,11.56
2023-05-09T04:27:06.196Z,11.55
2023-05-09T04:28:06.195Z,11.59
2023-05-09T04:29:06.175Z,11.62
2023-05-09T04:30:06.165Z,11.52
2023-05-09T04:31:06.224Z,11.52
2023-05-09T04:32:06.211Z,11.52
2023-05-09T04:33:06.160Z,11.55
2023-05-09T04:34:06.118Z,11.56
2023-05-09T04:35:06.114Z,11.55
2023-05-09T04:36:06.126Z,11.58
2023-05-09T04:37:06.094Z,11.56
2023-05-09T04:38:06.096Z,11.56
2023-05-09T04:39:06.080Z,11.54
2023-05-09T04:40:06.056Z,11.59
2023-05-09T04:41:06.102Z,11.56
2023-05-09T04:42:06.168Z,11.64
2023-05-09T04:43:06.066Z,11.54
2023-05-09T04:44:06.015Z,11.54
2023-05-09T04:45:06.035Z,11.56
2023-05-09T04:46:06.058Z,11.58
2023-05-09T04:47:05.988Z,11.62
2023-05-09T04:48:06.010Z,11.67
2023-05-09T04:49:06.037Z,11.62
2023-05-09T04:50:05.996Z,11.55
2023-05-09T04:51:05.997Z,11.56
2023-05-09T04:52:05.965Z,11.58
2023-05-09T04:53:05.917Z,11.59
2023-05-09T04:54:05.921Z,11.62
2023-05-09T04:55:05.945Z,11.69
2023-05-09T04:56:05.885Z,11.70
2023-05-09T04:57:16.580Z,11.61
2023-05-09T04:58:06.979Z,11.70
2023-05-09T04:59:05.852Z,11.62
2023-05-09T05:00:05.844Z,11.66
2023-05-09T05:01:05.837Z,11.79
2023-05-09T05:02:05.853Z,11.77
2023-05-09T05:03:05.895Z,11.66
2023-05-09T05:04:05.797Z,11.70
2023-05-09T05:05:13.313Z,11.70
2023-05-09T05:06:06.829Z,11.82
2023-05-09T05:07:05.786Z,11.74
2023-05-09T05:08:05.760Z,11.79
2023-05-09T05:09:05.774Z,11.84
2023-05-09T05:10:05.733Z,11.79
2023-05-09T05:11:05.737Z,11.87
2023-05-09T05:12:07.419Z,11.85
2023-05-09T05:13:05.762Z,11.82
2023-05-09T05:14:05.846Z,11.88
2023-05-09T05:15:05.680Z,11.85
2023-05-09T05:16:05.709Z,11.89
2023-05-09T05:17:05.658Z,11.95
2023-05-09T05:18:05.679Z,11.87
2023-05-09T05:19:05.634Z,11.88
2023-05-09T05:20:05.650Z,11.88
2023-05-09T05:21:05.617Z,11.91
2023-05-09T05:22:05.597Z,11.91
2023-05-09T05:23:05.599Z,12.03
2023-05-09T05:24:05.597Z,12.00
2023-05-09T05:25:05.604Z,12.03
2023-05-09T05:26:05.581Z,12.04
2023-05-09T05:27:05.566Z,12.04
2023-05-09T05:28:05.539Z,12.03
2023-05-09T05:29:05.523Z,11.99
2023-05-09T05:30:05.631Z,12.21
2023-05-09T05:31:05.565Z,12.13
2023-05-09T05:32:05.489Z,12.15
2023-05-09T05:33:05.540Z,12.14
2023-05-09T05:34:05.471Z,12.25
2023-05-09T05:35:05.464Z,12.23
2023-05-09T05:36:05.465Z,12.22
2023-05-09T05:37:05.431Z,12.26
2023-05-09T05:38:05.424Z,12.29
2023-05-09T05:39:05.439Z,12.26
2023-05-09T05:40:05.394Z,12.28
2023-05-09T05:41:05.400Z,12.36
2023-05-09T05:42:05.408Z,12.35
2023-05-09T05:43:05.372Z,12.33
2023-05-09T05:44:05.361Z,12.44
2023-05-09T05:45:05.344Z,12.38
2023-05-09T05:46:05.466Z,12.41
2023-05-09T05:47:05.354Z,12.44
2023-05-09T05:48:05.355Z,12.46
2023-05-09T05:49:05.306Z,12.43
2023-05-09T05:50:05.290Z,12.47
2023-05-09T05:51:05.281Z,12.46
2023-05-09T05:52:05.291Z,12.50
2023-05-09T05:53:05.256Z,12.43
2023-05-09T05:54:05.256Z,12.51
2023-05-09T05:55:05.245Z,12.61
2023-05-09T05:56:05.228Z,12.66
2023-05-09T05:57:05.253Z,12.66
2023-05-09T05:58:05.210Z,12.62
2023-05-09T05:59:05.191Z,12.59
2023-05-09T06:00:05.176Z,12.68
2023-05-09T06:01:05.176Z,12.61
2023-05-09T06:02:05.328Z,12.68
2023-05-09T06:03:05.235Z,12.69
2023-05-09T06:04:05.243Z,12.71
2023-05-09T06:05:05.134Z,12.72
2023-05-09T06:06:05.134Z,12.77
2023-05-09T06:07:05.115Z,12.88
2023-05-09T06:08:05.115Z,12.90
2023-05-09T06:09:05.087Z,12.90
2023-05-09T06:10:05.083Z,12.90
2023-05-09T06:11:05.089Z,12.91
2023-05-09T06:12:05.050Z,12.91
2023-05-09T06:13:05.076Z,12.88
2023-05-09T06:14:05.048Z,13.04
2023-05-09T06:15:05.070Z,13.01
2023-05-09T06:16:18.725Z,13.04
2023-05-09T06:17:06.026Z,13.04
2023-05-09T06:18:05.175Z,13.06
2023-05-09T06:19:04.966Z,13.06
2023-05-09T06:20:04.959Z,13.06
2023-05-09T06:21:04.978Z,13.09
2023-05-09T06:22:04.938Z,13.26
2023-05-09T06:23:04.930Z,13.17
2023-05-09T06:24:08.343Z,13.29
2023-05-09T06:25:08.049Z,13.30
2023-05-09T06:26:04.915Z,13.27
2023-05-09T06:27:04.896Z,13.40
2023-05-09T06:28:04.877Z,13.35
2023-05-09T06:29:04.882Z,13.32
2023-05-09T06:30:14.167Z,13.45
2023-05-09T06:31:04.873Z,13.43
2023-05-09T06:32:04.835Z,13.40
2023-05-09T06:33:04.859Z,13.47
2023-05-09T06:34:04.975Z,13.54
2023-05-09T06:35:04.835Z,13.58
2023-05-09T06:36:04.791Z,13.57
2023-05-09T06:37:04.790Z,13.64
2023-05-09T06:38:04.767Z,13.61
2023-05-09T06:39:04.783Z,13.63
2023-05-09T06:40:04.759Z,13.75
2023-05-09T06:41:04.747Z,13.73
2023-05-09T06:42:04.727Z,13.73
2023-05-09T06:43:04.715Z,13.71
2023-05-09T06:44:04.727Z,13.79
2023-05-09T06:45:04.737Z,13.79
2023-05-09T06:46:04.720Z,13.82
2023-05-09T06:47:04.678Z,13.85
2023-05-09T06:48:04.730Z,13.94
2023-05-09T06:49:04.675Z,13.90
2023-05-09T06:50:04.751Z,13.86
2023-05-09T06:51:04.651Z,13.97
2023-05-09T06:52:04.623Z,14.01
2023-05-09T06:53:04.637Z,14.05
2023-05-09T06:54:04.597Z,14.01
2023-05-09T06:55:04.624Z,14.11
2023-05-09T06:56:04.597Z,14.03
2023-05-09T06:57:04.563Z,14.03
2023-05-09T06:58:04.559Z,14.16
2023-05-09T06:59:04.550Z,14.18
2023-05-09T07:00:04.547Z,14.12
2023-05-09T07:01:04.582Z,14.22
2023-05-09T07:02:04.534Z,14.33
2023-05-09T07:03:04.531Z,14.28
2023-05-09T07:04:04.492Z,14.36
2023-05-09T07:05:04.534Z,14.40
2023-05-09T07:06:04.611Z,14.49
2023-05-09T07:07:04.452Z,14.37
2023-05-09T07:08:04.441Z,14.46
2023-05-09T07:09:04.467Z,14.44
2023-05-09T07:10:11.090Z,14.53
2023-05-09T07:11:05.416Z,14.63
2023-05-09T07:12:04.416Z,14.63
2023-05-09T07:13:04.412Z,14.63
2023-05-09T07:14:04.414Z,14.67
2023-05-09T07:15:04.436Z,14.61
2023-05-09T07:16:04.380Z,14.78
2023-05-09T07:17:18.750Z,14.77
2023-05-09T07:18:04.433Z,14.83
2023-05-09T07:19:04.325Z,14.82
2023-05-09T07:20:04.341Z,14.79
2023-05-09T07:21:04.314Z,14.95
2023-05-09T07:22:04.473Z,14.95
2023-05-09T07:23:04.319Z,14.97
2023-05-09T07:24:04.269Z,15.04
2023-05-09T07:25:04.283Z,15.04
2023-05-09T07:26:04.249Z,15.07
2023-05-09T07:27:04.246Z,15.04
2023-05-09T07:28:04.231Z,15.19
2023-05-09T07:29:04.237Z,15.14
2023-05-09T07:30:04.230Z,15.17
2023-05-09T07:31:04.211Z,15.26
2023-05-09T07:32:04.215Z,15.20
2023-05-09T07:33:04.249Z,15.29
2023-05-09T07:34:04.190Z,15.40
2023-05-09T07:35:04.169Z,15.47
2023-05-09T07:36:04.154Z,15.47
2023-05-09T07:37:04.132Z,15.45
2023-05-09T07:38:04.239Z,15.44
2023-05-09T07:39:04.108Z,15.50
2023-05-09T07:40:04.122Z,15.54
2023-05-09T07:41:04.089Z,15.56
2023-05-09T07:42:04.079Z,15.62
2023-05-09T07:43:04.066Z,15.68
2023-05-09T07:44:04.057Z,15.78
2023-05-09T07:45:04.068Z,15.81
2023-05-09T07:46:04.107Z,15.77
2023-05-09T07:47:04.013Z,15.87
2023-05-09T07:48:04.046Z,15.84
2023-05-09T07:49:03.992Z,16.00
2023-05-09T07:50:04.005Z,15.96
2023-05-09T07:51:03.974Z,15.98
2023-05-09T07:52:03.974Z,16.16
2023-05-09T07:53:03.952Z,16.17
2023-05-09T07:54:04.066Z,16.18
2023-05-09T07:55:03.952Z,16.22
2023-05-09T07:56:03.942Z,16.32
2023-05-09T07:57:03.933Z,16.29
2023-05-09T07:58:03.903Z,16.34
2023-05-09T07:59:03.911Z,16.42
2023-05-09T08:00:03.872Z,16.47
2023-05-09T08:01:03.876Z,16.47
2023-05-09T08:02:03.915Z,16.61
2023-05-09T08:03:03.990Z,16.65
2023-05-09T08:04:04.005Z,16.65
2023-05-09T08:05:03.849Z,16.67
2023-05-09T08:06:03.809Z,16.72
2023-05-09T08:07:03.828Z,16.72
2023-05-09T08:08:03.790Z,16.80
2023-05-09T08:09:03.781Z,16.82
2023-05-09T08:10:03.869Z,16.88
2023-05-09T08:11:03.765Z,16.95
2023-05-09T08:12:03.751Z,16.99
2023-05-09T08:13:03.851Z,17.04
2023-05-09T08:14:03.757Z,17.12
2023-05-09T08:15:03.732Z,17.16
2023-05-09T08:16:03.785Z,17.13
2023-05-09T08:17:03.702Z,17.22
2023-05-09T08:18:03.783Z,17.28
2023-05-09T08:19:03.676Z,17.30
2023-05-09T08:20:03.662Z,17.39
2023-05-09T08:21:03.662Z,17.41
2023-05-09T08:22:03.645Z,17.41
2023-05-09T08:23:03.665Z,17.52
2023-05-09T08:24:03.621Z,17.47
2023-05-09T08:25:03.693Z,17.62
2023-05-09T08:26:03.796Z,17.68
2023-05-09T08:27:03.609Z,17.72
2023-05-09T08:28:03.576Z,17.79
2023-05-09T08:29:03.573Z,17.72
2023-05-09T08:30:03.556Z,17.79
2023-05-09T08:31:03.563Z,17.87
2023-05-09T08:32:03.587Z,17.94
2023-05-09T08:33:03.569Z,17.94
2023-05-09T08:34:03.508Z,18.05
2023-05-09T08:35:03.506Z,18.11
2023-05-09T08:36:03.504Z,18.20
2023-05-09T08:37:03.483Z,18.21
2023-05-09T08:38:03.492Z,18.24
2023-05-09T08:39:03.456Z,18.31
2023-05-09T08:40:03.445Z,18.31
2023-05-09T08:41:03.451Z,18.36
2023-05-09T08:42:03.559Z,18.30
2023-05-09T08:43:03.419Z,18.52
2023-05-09T08:44:03.437Z,18.43
2023-05-09T08:45:03.417Z,18.39
2023-05-09T08:46:03.425Z,18.52
2023-05-09T08:47:03.463Z,18.52
2023-05-09T08:48:03.411Z,18.64
2023-05-09T08:49:03.363Z,18.66
2023-05-09T08:50:03.376Z,18.64
2023-05-09T08:51:03.331Z,18.81
2023-05-09T08:52:03.318Z,18.81
2023-05-09T08:53:03.336Z,18.96
2023-05-09T08:54:03.312Z,18.93
2023-05-09T08:55:03.286Z,18.91
2023-05-09T08:56:03.282Z,19.04
2023-05-09T08:57:03.289Z,19.00
2023-05-09T08:58:03.407Z,19.08
2023-05-09T08:59:03.243Z,19.12
2023-05-09T09:00:03.272Z,19.23
2023-05-09T09:01:03.228Z,19.30
2023-05-09T09:02:03.257Z,19.30
2023-05-09T09:03:03.257Z,19.34
2023-05-09T09:04:03.192Z,19.49
2023-05-09T09:05:03.312Z,19.44
2023-05-09T09:06:03.183Z,19.45
2023-05-09T09:07:03.191Z,19.53
2023-05-09T09:08:03.153Z,19.54
2023-05-09T09:09:03.131Z,19.54
2023-05-09T09:10:03.139Z,19.68
2023-05-09T09:11:03.118Z,19.67
2023-05-09T09:12:03.126Z,19.77
2023-05-09T09:13:03.118Z,19.72
2023-05-09T09:14:03.210Z,19.82
2023-05-09T09:15:03.077Z,19.92
2023-05-09T09:16:03.111Z,19.89
2023-05-09T09:17:03.081Z,19.90
2023-05-09T09:18:04.290Z,20.00
2023-05-09T09:19:03.030Z,20.07
2023-05-09T09:20:03.029Z,20.08
2023-05-09T09:21:03.006Z,20.04
2023-05-09T09:22:03.025Z,20.18
2023-05-09T09:23:02.983Z,20.22
2023-05-09T09:24:02.975Z,20.26
2023-05-09T09:25:02.963Z,20.26
2023-05-09T09:26:02.956Z,20.37
2023-05-09T09:27:02.967Z,20.33
2023-05-09T09:28:02.951Z,20.39
2023-05-09T09:29:02.925Z,20.36
2023-05-09T09:30:03.040Z,20.41
2023-05-09T09:31:02.900Z,20.44
2023-05-09T09:32:02.937Z,20.56
2023-05-09T09:33:02.922Z,20.65
2023-05-09T09:34:02.874Z,20.56
2023-05-09T09:35:02.874Z,20.64
2023-05-09T09:36:02.853Z,20.70
2023-05-09T09:37:02.865Z,20.71
2023-05-09T09:38:02.893Z,20.86
2023-05-09T09:39:02.816Z,20.83
2023-05-09T09:40:02.805Z,20.95
2023-05-09T09:41:02.789Z,21.05
2023-05-09T09:42:02.813Z,21.08
2023-05-09T09:43:02.787Z,21.11
2023-05-09T09:44:02.767Z,21.23
2023-05-09T09:45:02.784Z,21.23
2023-05-09T09:46:02.955Z,21.29
2023-05-09T09:47:02.738Z,21.34
2023-05-09T09:48:02.771Z,21.38
2023-05-09T09:49:02.714Z,21.40
2023-05-09T09:50:02.716Z,21.45
2023-05-09T09:51:02.686Z,21.50
2023-05-09T09:52:02.700Z,21.51
2023-05-09T09:53:02.688Z,21.60
2023-05-09T09:54:02.671Z,21.63
2023-05-09T09:55:02.663Z,21.66
2023-05-09T09:56:02.644Z,21.71
2023-05-09T09:57:02.630Z,21.80
2023-05-09T09:58:02.637Z,21.81
2023-05-09T09:59:02.605Z,21.91
2023-05-09T10:00:02.593Z,21.94
2023-05-09T10:01:02.693Z,22.13
2023-05-09T10:02:06.693Z,22.06
2023-05-09T10:03:03.741Z,22.19
2023-05-09T10:04:02.595Z,22.30
2023-05-09T10:05:02.537Z,22.33
2023-05-09T10:06:02.544Z,22.51
2023-05-09T10:07:02.517Z,22.61
2023-05-09T10:08:02.536Z,22.67
2023-05-09T10:09:02.507Z,22.78
2023-05-09T10:10:02.481Z,22.89
2023-05-09T10:11:02.469Z,23.01
2023-05-09T10:12:02.469Z,23.14
2023-05-09T10:13:02.551Z,23.23
2023-05-09T10:14:02.454Z,23.33
2023-05-09T10:15:02.428Z,23.44
2023-05-09T10:16:02.482Z,23.45
2023-05-09T10:17:02.494Z,23.60
2023-05-09T10:18:02.635Z,23.82
2023-05-09T10:19:02.451Z,23.73
2023-05-09T10:20:02.382Z,24.00
2023-05-09T10:21:02.371Z,24.04
2023-05-09T10:22:02.383Z,24.25
2023-05-09T10:23:02.350Z,24.34
2023-05-09T10:24:02.332Z,24.38
2023-05-09T10:25:02.360Z,24.59
2023-05-09T10:26:02.313Z,24.56
2023-05-09T10:27:02.334Z,24.65
2023-05-09T10:28:02.332Z,24.75
2023-05-09T10:29:02.278Z,24.79
2023-05-09T10:30:02.271Z,24.78
2023-05-09T10:31:02.272Z,24.81
2023-05-09T10:32:02.266Z,24.86
2023-05-09T10:33:02.289Z,24.85
2023-05-09T10:34:02.351Z,24.86
2023-05-09T10:35:02.216Z,24.89
2023-05-09T10:36:02.216Z,25.00
2023-05-09T10:37:02.209Z,25.04
2023-05-09T10:38:02.221Z,25.09
2023-05-09T10:39:02.174Z,25.08
2023-05-09T10:40:02.165Z,25.11
2023-05-09T10:41:02.154Z,25.18
2023-05-09T10:42:02.154Z,25.21
2023-05-09T10:43:02.157Z,25.18
2023-05-09T10:44:02.117Z,25.15
2023-05-09T10:45:02.118Z,25.31
2023-05-09T10:46:02.106Z,25.23
2023-05-09T10:47:02.175Z,25.33
2023-05-09T10:48:02.148Z,25.31
2023-05-09T10:49:02.085Z,25.31
2023-05-09T10:50:02.181Z,25.38
2023-05-09T10:51:02.045Z,25.38
2023-05-09T10:52:02.044Z,25.38
2023-05-09T10:53:02.041Z,25.38
2023-05-09T10:54:02.039Z,25.40
2023-05-09T10:55:02.001Z,25.46
2023-05-09T10:56:01.994Z,25.40
2023-05-09T10:57:01.983Z,25.37
2023-05-09T10:58:01.972Z,25.46
2023-05-09T10:59:01.972Z,25.49
2023-05-09T11:00:01.971Z,25.48
2023-05-09T11:01:01.936Z,25.53
2023-05-09T11:02:02.052Z,25.46
2023-05-09T11:03:01.948Z,25.53
2023-05-09T11:04:01.984Z,25.55
2023-05-09T11:05:01.903Z,25.58
2023-05-09T11:06:02.000Z,25.56
2023-05-09T11:07:01.885Z,25.64
2023-05-09T11:08:01.868Z,25.63
2023-05-09T11:09:01.872Z,25.68
2023-05-09T11:10:01.869Z,25.64
2023-05-09T11:11:01.840Z,25.66
2023-05-09T11:12:01.883Z,25.74
2023-05-09T11:13:01.844Z,25.75
2023-05-09T11:14:01.829Z,25.88
2023-05-09T11:15:01.811Z,25.77
2023-05-09T11:16:01.874Z,25.81
2023-05-09T11:17:01.780Z,25.78
2023-05-09T11:18:01.793Z,25.88
2023-05-09T11:19:01.766Z,25.89
2023-05-09T11:20:01.782Z,25.92
2023-05-09T11:21:01.739Z,26.03
2023-05-09T11:22:01.846Z,26.00
2023-05-09T11:23:01.708Z,26.04
2023-05-09T11:24:01.706Z,26.08
2023-05-09T11:25:01.728Z,26.10
2023-05-09T11:26:01.688Z,26.19
2023-05-09T11:27:01.675Z,26.19
2023-05-09T11:28:01.662Z,26.27
2023-05-09T11:29:01.651Z,26.34
2023-05-09T11:30:01.668Z,26.36
2023-05-09T11:31:01.631Z,26.38
2023-05-09T11:32:01.624Z,26.45
2023-05-09T11:33:01.686Z,26.45
2023-05-09T11:34:01.613Z,26.51
2023-05-09T11:35:01.626Z,26.57
2023-05-09T11:36:01.579Z,26.68
2023-05-09T11:37:01.560Z,26.70
2023-05-09T11:38:01.745Z,26.71
2023-05-09T11:39:01.546Z,26.76
2023-05-09T11:40:01.549Z,26.79
2023-05-09T11:41:01.551Z,26.90
2023-05-09T11:42:01.515Z,26.97
2023-05-09T11:43:01.513Z,26.89
2023-05-09T11:44:01.516Z,26.97
2023-05-09T11:45:01.496Z,27.10
2023-05-09T11:46:01.534Z,27.07
2023-05-09T11:47:01.488Z,27.17
2023-05-09T11:48:01.588Z,27.26
2023-05-09T11:49:01.439Z,27.27
2023-05-09T11:50:01.419Z,27.32
2023-05-09T11:51:01.441Z,27.42
2023-05-09T11:52:01.414Z,27.47
2023-05-09T11:53:01.423Z,27.47
2023-05-09T11:54:01.527Z,27.53
2023-05-09T11:55:01.395Z,27.49
2023-05-09T11:56:01.361Z,27.63
2023-05-09T11:57:01.360Z,27.61
2023-05-09T11:58:01.333Z,27.82
2023-05-09T11:59:01.354Z,27.78
2023-05-09T12:00:01.340Z,27.75
2023-05-09T12:01:01.318Z,27.80
2023-05-09T12:02:01.313Z,27.80
2023-05-09T12:03:01.374Z,27.95
2023-05-09T12:04:01.400Z,28.03
2023-05-09T12:05:01.295Z,28.07
2023-05-09T12:06:01.250Z,28.03
2023-05-09T12:07:01.244Z,28.16
2023-05-09T12:08:01.228Z,28.22
2023-05-09T12:09:01.245Z,28.20
2023-05-09T12:10:01.382Z,28.19
2023-05-09T12:11:01.202Z,28.24
2023-05-09T12:12:01.196Z,28.24
2023-05-09T12:13:01.216Z,28.31
2023-05-09T12:14:01.165Z,28.32
2023-05-09T12:15:01.168Z,28.34
2023-05-09T12:16:01.225Z,28.46
2023-05-09T12:17:01.145Z,28.50
2023-05-09T12:18:01.186Z,28.46
2023-05-09T12:19:01.154Z,28.52
2023-05-09T12:20:01.114Z,28.59
2023-05-09T12:21:01.114Z,28.62
2023-05-09T12:22:01.078Z,28.62
2023-05-09T12:23:01.102Z,28.69
2023-05-09T12:24:01.056Z,28.71
2023-05-09T12:25:01.059Z,28.72
2023-05-09T12:26:01.169Z,28.71
2023-05-09T12:27:01.063Z,28.77
2023-05-09T12:28:01.045Z,28.90
2023-05-09T12:29:01.036Z,28.86
2023-05-09T12:30:01.026Z,28.84
2023-05-09T12:31:01.037Z,28.81
2023-05-09T12:32:00.976Z,28.84
2023-05-09T12:33:01.008Z,28.94
2023-05-09T12:34:00.954Z,28.96
2023-05-09T12:35:00.959Z,28.96
2023-05-09T12:36:00.933Z,29.02
2023-05-09T12:37:00.934Z,29.04
2023-05-09T12:38:00.931Z,29.07
2023-05-09T12:39:00.910Z,29.12
2023-05-09T12:40:00.921Z,29.18
2023-05-09T12:41:02.819Z,29.13
2023-05-09T12:42:02.273Z,29.22
2023-05-09T12:43:00.945Z,29.22
2023-05-09T12:44:00.856Z,29.29
2023-05-09T12:45:00.884Z,29.36
2023-05-09T12:46:00.830Z,29.39
2023-05-09T12:47:00.850Z,29.36
2023-05-09T12:48:00.871Z,29.46
2023-05-09T12:49:00.804Z,29.46
2023-05-09T12:50:00.812Z,29.41
2023-05-09T12:51:00.802Z,29.50
2023-05-09T12:52:02.977Z,29.49